sensor_id;sensor_type;location;lat;lon;timestamp;temperature;humidity
14053;DHT22;7101;51.600;7.310;2022-10-03T00:02:02;8.90;99.90
14053;DHT22;7101;51.600;7.310;2022-10-03T00:04:51;8.90;99.90
14053;DHT22;7101;51.600;7.310;2022-10-03T00:07:38;8.90;99.90
14053;DHT22;7101;51.600;7.310;2022-10-03T00:10:17;8.90;99.90
14053;DHT22;7101;51.600;7.310;2022-10-03T00:13:00;8.80;99.90
14053;DHT22;7101;51.600;7.310;2022-10-03T00:15:36;8.80;99.90
14053;DHT22;7101;51.600;7.310;2022-10-03T00:18:16;8.80;99.90
14053;DHT22;7101;51.600;7.310;2022-10-03T00:21:01;8.80;99.90
14053;DHT22;7101;51.600;7.310;2022-10-03T00:23:37;8.80;99.90
14053;DHT22;7101;51.600;7.310;2022-10-03T00:26:11;8.80;99.90
14053;DHT22;7101;51.600;7.310;2022-10-03T00:29:22;8.80;99.90
14053;DHT22;7101;51.600;7.310;2022-10-03T00:32:00;8.80;99.90
14053;DHT22;7101;51.600;7.310;2022-10-03T00:34:41;8.80;99.90
14053;DHT22;7101;51.600;7.310;2022-10-03T00:37:23;8.80;99.90
14053;DHT22;7101;51.600;7.310;2022-10-03T00:40:29;8.80;99.90
14053;DHT22;7101;51.600;7.310;2022-10-03T00:43:26;8.80;99.90
14053;DHT22;7101;51.600;7.310;2022-10-03T00:46:36;8.70;99.90
14053;DHT22;7101;51.600;7.310;2022-10-03T00:49:36;8.70;99.90
14053;DHT22;7101;51.600;7.310;2022-10-03T00:52:20;8.70;99.90
14053;DHT22;7101;51.600;7.310;2022-10-03T00:55:05;8.70;99.90
14053;DHT22;7101;51.600;7.310;2022-10-03T00:57:52;8.70;99.90
14053;DHT22;7101;51.600;7.310;2022-10-03T01:00:27;8.80;99.90
14053;DHT22;7101;51.600;7.310;2022-10-03T01:03:25;8.90;99.90
14053;DHT22;7101;51.600;7.310;2022-10-03T01:06:09;9.00;99.90
14053;DHT22;7101;51.600;7.310;2022-10-03T01:08:56;9.10;99.90
14053;DHT22;7101;51.600;7.310;2022-10-03T01:11:38;9.10;99.90
14053;DHT22;7101;51.600;7.310;2022-10-03T01:14:22;9.10;99.90
14053;DHT22;7101;51.600;7.310;2022-10-03T01:17:09;9.00;99.90
14053;DHT22;7101;51.600;7.310;2022-10-03T01:20:01;9.00;99.90
14053;DHT22;7101;51.600;7.310;2022-10-03T01:22:55;9.00;99.90
14053;DHT22;7101;51.600;7.310;2022-10-03T01:25:37;8.90;99.90
14053;DHT22;7101;51.600;7.310;2022-10-03T01:28:21;8.90;99.90
14053;DHT22;7101;51.600;7.310;2022-10-03T01:31:08;8.80;99.90
14053;DHT22;7101;51.600;7.310;2022-10-03T01:33:40;8.80;99.90
14053;DHT22;7101;51.600;7.310;2022-10-03T01:36:11;8.70;99.90
14053;DHT22;7101;51.600;7.310;2022-10-03T01:38:44;8.70;99.90
14053;DHT22;7101;51.600;7.310;2022-10-03T01:41:23;8.70;99.90
14053;DHT22;7101;51.600;7.310;2022-10-03T01:43:58;8.70;99.90
14053;DHT22;7101;51.600;7.310;2022-10-03T01:46:36;8.70;99.90
14053;DHT22;7101;51.600;7.310;2022-10-03T01:49:08;8.60;99.90
14053;DHT22;7101;51.600;7.310;2022-10-03T01:51:44;8.60;99.90
14053;DHT22;7101;51.600;7.310;2022-10-03T01:54:19;8.60;99.90
14053;DHT22;7101;51.600;7.310;2022-10-03T01:56:54;8.50;99.90
14053;DHT22;7101;51.600;7.310;2022-10-03T01:59:33;8.50;99.90
14053;DHT22;7101;51.600;7.310;2022-10-03T02:02:13;8.50;99.90
14053;DHT22;7101;51.600;7.310;2022-10-03T02:04:47;8.60;99.90
14053;DHT22;7101;51.600;7.310;2022-10-03T02:07:24;8.60;99.90
14053;DHT22;7101;51.600;7.310;2022-10-03T02:10:02;8.60;99.90
14053;DHT22;7101;51.600;7.310;2022-10-03T02:12:35;8.60;99.90
14053;DHT22;7101;51.600;7.310;2022-10-03T02:15:14;8.60;99.90
14053;DHT22;7101;51.600;7.310;2022-10-03T02:17:51;8.60;99.90
14053;DHT22;7101;51.600;7.310;2022-10-03T02:20:24;8.50;99.90
14053;DHT22;7101;51.600;7.310;2022-10-03T02:22:55;8.40;99.90
14053;DHT22;7101;51.600;7.310;2022-10-03T02:25:26;8.50;99.90
14053;DHT22;7101;51.600;7.310;2022-10-03T02:28:24;8.40;99.90
14053;DHT22;7101;51.600;7.310;2022-10-03T02:31:19;8.40;99.90
14053;DHT22;7101;51.600;7.310;2022-10-03T02:34:15;8.40;99.90
14053;DHT22;7101;51.600;7.310;2022-10-03T02:37:06;8.40;99.90
14053;DHT22;7101;51.600;7.310;2022-10-03T02:46:34;8.20;99.90
14053;DHT22;7101;51.600;7.310;2022-10-03T02:49:40;8.20;99.90
14053;DHT22;7101;51.600;7.310;2022-10-03T02:52:40;8.20;99.90
14053;DHT22;7101;51.600;7.310;2022-10-03T02:55:36;8.20;99.90
14053;DHT22;7101;51.600;7.310;2022-10-03T02:58:48;8.20;99.90
14053;DHT22;7101;51.600;7.310;2022-10-03T03:01:44;8.20;99.90
14053;DHT22;7101;51.600;7.310;2022-10-03T03:04:40;8.20;99.90
14053;DHT22;7101;51.600;7.310;2022-10-03T03:07:32;8.20;99.90
14053;DHT22;7101;51.600;7.310;2022-10-03T03:13:31;8.10;99.90
14053;DHT22;7101;51.600;7.310;2022-10-03T03:19:21;8.10;99.90
14053;DHT22;7101;51.600;7.310;2022-10-03T03:21:55;8.10;99.90
14053;DHT22;7101;51.600;7.310;2022-10-03T03:24:51;8.00;99.90
14053;DHT22;7101;51.600;7.310;2022-10-03T03:27:34;8.10;99.90
14053;DHT22;7101;51.600;7.310;2022-10-03T03:30:07;8.00;99.90
14053;DHT22;7101;51.600;7.310;2022-10-03T03:32:48;8.00;99.90
14053;DHT22;7101;51.600;7.310;2022-10-03T03:35:30;8.00;99.90
14053;DHT22;7101;51.600;7.310;2022-10-03T03:38:10;8.00;99.90
14053;DHT22;7101;51.600;7.310;2022-10-03T03:40:45;8.00;99.90
14053;DHT22;7101;51.600;7.310;2022-10-03T03:43:41;8.10;99.90
14053;DHT22;7101;51.600;7.310;2022-10-03T03:46:19;8.10;99.90
14053;DHT22;7101;51.600;7.310;2022-10-03T03:48:59;8.10;99.90
14053;DHT22;7101;51.600;7.310;2022-10-03T03:51:41;8.10;99.90
14053;DHT22;7101;51.600;7.310;2022-10-03T03:54:50;8.10;99.90
14053;DHT22;7101;51.600;7.310;2022-10-03T03:57:50;8.20;99.90
14053;DHT22;7101;51.600;7.310;2022-10-03T04:00:29;8.20;99.90
14053;DHT22;7101;51.600;7.310;2022-10-03T04:03:08;8.20;99.90
14053;DHT22;7101;51.600;7.310;2022-10-03T04:05:55;8.20;99.90
14053;DHT22;7101;51.600;7.310;2022-10-03T04:08:46;8.20;99.90
14053;DHT22;7101;51.600;7.310;2022-10-03T04:11:35;8.20;99.90
14053;DHT22;7101;51.600;7.310;2022-10-03T04:14:33;8.20;99.90
14053;DHT22;7101;51.600;7.310;2022-10-03T04:17:13;8.20;99.90
14053;DHT22;7101;51.600;7.310;2022-10-03T04:20:15;8.10;99.90
14053;DHT22;7101;51.600;7.310;2022-10-03T04:23:15;8.10;99.90
14053;DHT22;7101;51.600;7.310;2022-10-03T04:25:57;8.20;99.90
14053;DHT22;7101;51.600;7.310;2022-10-03T04:28:50;8.10;99.90
14053;DHT22;7101;51.600;7.310;2022-10-03T04:31:32;8.20;99.90
14053;DHT22;7101;51.600;7.310;2022-10-03T04:34:23;8.20;99.90
14053;DHT22;7101;51.600;7.310;2022-10-03T04:37:10;8.30;99.90
14053;DHT22;7101;51.600;7.310;2022-10-03T04:39:46;8.30;99.90
14053;DHT22;7101;51.600;7.310;2022-10-03T04:42:26;8.40;99.90
14053;DHT22;7101;51.600;7.310;2022-10-03T04:45:11;8.40;99.90
14053;DHT22;7101;51.600;7.310;2022-10-03T04:47:43;8.50;99.90
14053;DHT22;7101;51.600;7.310;2022-10-03T04:50:23;8.50;99.90
14053;DHT22;7101;51.600;7.310;2022-10-03T04:53:05;8.60;99.90
14053;DHT22;7101;51.600;7.310;2022-10-03T04:55:39;8.70;99.90
14053;DHT22;7101;51.600;7.310;2022-10-03T04:58:20;8.80;99.90
14053;DHT22;7101;51.600;7.310;2022-10-03T05:00:59;8.70;99.90
14053;DHT22;7101;51.600;7.310;2022-10-03T05:03:40;8.80;99.90
14053;DHT22;7101;51.600;7.310;2022-10-03T05:06:26;8.90;99.90
14053;DHT22;7101;51.600;7.310;2022-10-03T05:09:01;8.80;99.90
14053;DHT22;7101;51.600;7.310;2022-10-03T05:11:43;8.80;99.90
14053;DHT22;7101;51.600;7.310;2022-10-03T05:14:23;8.80;99.90
14053;DHT22;7101;51.600;7.310;2022-10-03T05:16:56;8.70;99.90
14053;DHT22;7101;51.600;7.310;2022-10-03T05:19:45;8.60;99.90
14053;DHT22;7101;51.600;7.310;2022-10-03T05:22:31;8.60;99.90
14053;DHT22;7101;51.600;7.310;2022-10-03T05:25:15;8.50;99.90
14053;DHT22;7101;51.600;7.310;2022-10-03T05:27:49;8.50;99.90
14053;DHT22;7101;51.600;7.310;2022-10-03T05:30:30;8.40;99.90
14053;DHT22;7101;51.600;7.310;2022-10-03T05:33:04;8.40;99.90
14053;DHT22;7101;51.600;7.310;2022-10-03T05:35:44;8.30;99.90
14053;DHT22;7101;51.600;7.310;2022-10-03T05:38:38;8.30;99.90
14053;DHT22;7101;51.600;7.310;2022-10-03T05:41:19;8.30;99.90
14053;DHT22;7101;51.600;7.310;2022-10-03T05:43:56;8.30;99.90
14053;DHT22;7101;51.600;7.310;2022-10-03T05:46:51;8.30;99.90
14053;DHT22;7101;51.600;7.310;2022-10-03T05:49:40;8.30;99.90
14053;DHT22;7101;51.600;7.310;2022-10-03T05:52:22;8.40;99.90
14053;DHT22;7101;51.600;7.310;2022-10-03T05:55:07;8.40;99.90
14053;DHT22;7101;51.600;7.310;2022-10-03T05:57:56;8.40;99.90
14053;DHT22;7101;51.600;7.310;2022-10-03T06:00:37;8.40;99.90
14053;DHT22;7101;51.600;7.310;2022-10-03T06:06:17;8.50;99.90
14053;DHT22;7101;51.600;7.310;2022-10-03T06:09:15;8.60;99.90
14053;DHT22;7101;51.600;7.310;2022-10-03T06:12:00;8.60;99.90
14053;DHT22;7101;51.600;7.310;2022-10-03T06:14:45;8.70;99.90
14053;DHT22;7101;51.600;7.310;2022-10-03T06:20:43;8.90;99.90
14053;DHT22;7101;51.600;7.310;2022-10-03T06:26:56;9.00;99.90
14053;DHT22;7101;51.600;7.310;2022-10-03T06:33:07;9.10;99.90
14053;DHT22;7101;51.600;7.310;2022-10-03T06:36:05;9.20;99.90
14053;DHT22;7101;51.600;7.310;2022-10-03T06:41:59;9.40;99.90
14053;DHT22;7101;51.600;7.310;2022-10-03T06:44:47;9.60;99.90
14053;DHT22;7101;51.600;7.310;2022-10-03T06:47:34;10.00;99.90
14053;DHT22;7101;51.600;7.310;2022-10-03T06:50:50;10.80;99.90
14053;DHT22;7101;51.600;7.310;2022-10-03T06:53:39;11.80;99.90
14053;DHT22;7101;51.600;7.310;2022-10-03T06:56:40;12.40;99.90
14053;DHT22;7101;51.600;7.310;2022-10-03T07:05:40;14.00;1.00
14053;DHT22;7101;51.600;7.310;2022-10-03T07:14:54;15.40;1.00
14053;DHT22;7101;51.600;7.310;2022-10-03T07:17:49;15.60;1.00
14053;DHT22;7101;51.600;7.310;2022-10-03T07:21:03;15.80;1.00
14053;DHT22;7101;51.600;7.310;2022-10-03T07:24:08;16.00;1.00
14053;DHT22;7101;51.600;7.310;2022-10-03T07:29:57;16.60;1.00
14053;DHT22;7101;51.600;7.310;2022-10-03T07:35:43;16.90;1.00
14053;DHT22;7101;51.600;7.310;2022-10-03T07:38:50;17.00;1.00
14053;DHT22;7101;51.600;7.310;2022-10-03T07:41:47;16.90;1.00
14053;DHT22;7101;51.600;7.310;2022-10-03T07:44:46;17.20;1.00
14053;DHT22;7101;51.600;7.310;2022-10-03T07:47:40;17.40;1.00
14053;DHT22;7101;51.600;7.310;2022-10-03T07:56:41;17.10;1.00
14053;DHT22;7101;51.600;7.310;2022-10-03T07:59:41;16.70;1.00
14053;DHT22;7101;51.600;7.310;2022-10-03T08:02:35;16.50;1.00
14053;DHT22;7101;51.600;7.310;2022-10-03T08:05:21;16.00;1.00
14053;DHT22;7101;51.600;7.310;2022-10-03T08:08:05;15.60;1.00
14053;DHT22;7101;51.600;7.310;2022-10-03T08:11:06;15.50;1.00
14053;DHT22;7101;51.600;7.310;2022-10-03T08:13:49;15.50;1.00
14053;DHT22;7101;51.600;7.310;2022-10-03T08:16:34;15.30;1.00
14053;DHT22;7101;51.600;7.310;2022-10-03T08:19:18;15.10;1.00
14053;DHT22;7101;51.600;7.310;2022-10-03T08:21:57;15.00;1.00
14053;DHT22;7101;51.600;7.310;2022-10-03T08:24:54;14.80;1.00
14053;DHT22;7101;51.600;7.310;2022-10-03T08:27:43;14.90;1.00
14053;DHT22;7101;51.600;7.310;2022-10-03T08:30:22;14.90;1.00
14053;DHT22;7101;51.600;7.310;2022-10-03T08:33:13;15.00;1.00
14053;DHT22;7101;51.600;7.310;2022-10-03T08:39:10;14.90;1.00
14053;DHT22;7101;51.600;7.310;2022-10-03T08:48:45;15.00;1.00
14053;DHT22;7101;51.600;7.310;2022-10-03T08:57:58;15.80;1.00
14053;DHT22;7101;51.600;7.310;2022-10-03T09:00:45;15.80;1.00
14053;DHT22;7101;51.600;7.310;2022-10-03T09:06:52;16.00;1.00
14053;DHT22;7101;51.600;7.310;2022-10-03T09:10:00;16.10;1.00
14053;DHT22;7101;51.600;7.310;2022-10-03T09:19:02;15.80;1.00
14053;DHT22;7101;51.600;7.310;2022-10-03T09:22:09;16.30;1.00
14053;DHT22;7101;51.600;7.310;2022-10-03T09:31:01;16.20;1.00
14053;DHT22;7101;51.600;7.310;2022-10-03T09:34:11;16.30;1.00
14053;DHT22;7101;51.600;7.310;2022-10-03T09:40:54;15.70;1.00
14053;DHT22;7101;51.600;7.310;2022-10-03T09:43:45;15.70;1.00
14053;DHT22;7101;51.600;7.310;2022-10-03T09:46:43;16.10;1.00
14053;DHT22;7101;51.600;7.310;2022-10-03T09:52:40;16.50;1.00
14053;DHT22;7101;51.600;7.310;2022-10-03T09:55:42;16.50;99.90
14053;DHT22;7101;51.600;7.310;2022-10-03T09:58:38;16.50;99.90
14053;DHT22;7101;51.600;7.310;2022-10-03T10:01:18;16.30;99.90
14053;DHT22;7101;51.600;7.310;2022-10-03T10:04:22;16.00;1.00
14053;DHT22;7101;51.600;7.310;2022-10-03T10:10:47;16.10;1.00
14053;DHT22;7101;51.600;7.310;2022-10-03T10:13:44;16.50;99.90
14053;DHT22;7101;51.600;7.310;2022-10-03T10:19:43;16.70;99.90
14053;DHT22;7101;51.600;7.310;2022-10-03T10:22:34;17.00;99.90
14053;DHT22;7101;51.600;7.310;2022-10-03T10:25:52;17.30;99.90
14053;DHT22;7101;51.600;7.310;2022-10-03T10:29:01;17.90;99.90
14053;DHT22;7101;51.600;7.310;2022-10-03T10:32:05;17.70;1.00
14053;DHT22;7101;51.600;7.310;2022-10-03T10:38:03;16.70;99.90
14053;DHT22;7101;51.600;7.310;2022-10-03T10:44:01;16.60;99.90
14053;DHT22;7101;51.600;7.310;2022-10-03T10:47:26;16.70;1.10
14053;DHT22;7101;51.600;7.310;2022-10-03T10:56:56;17.00;73.80
14053;DHT22;7101;51.600;7.310;2022-10-03T11:00:12;17.20;99.90
14053;DHT22;7101;51.600;7.310;2022-10-03T11:06:39;17.30;1.00
14053;DHT22;7101;51.600;7.310;2022-10-03T11:09:45;17.00;1.00
14053;DHT22;7101;51.600;7.310;2022-10-03T11:15:51;17.30;1.00
14053;DHT22;7101;51.600;7.310;2022-10-03T11:28:29;17.50;1.00
14053;DHT22;7101;51.600;7.310;2022-10-03T11:34:35;17.30;1.00
14053;DHT22;7101;51.600;7.310;2022-10-03T11:37:21;17.40;99.90
14053;DHT22;7101;51.600;7.310;2022-10-03T11:40:00;17.40;99.90
14053;DHT22;7101;51.600;7.310;2022-10-03T11:42:42;17.50;99.90
14053;DHT22;7101;51.600;7.310;2022-10-03T11:45:19;17.60;99.90
14053;DHT22;7101;51.600;7.310;2022-10-03T11:48:07;17.60;1.00
14053;DHT22;7101;51.600;7.310;2022-10-03T11:50:47;18.10;9.70
14053;DHT22;7101;51.600;7.310;2022-10-03T11:56:30;18.20;1.00
14053;DHT22;7101;51.600;7.310;2022-10-03T11:59:32;17.40;1.00
14053;DHT22;7101;51.600;7.310;2022-10-03T12:02:09;17.20;1.00
14053;DHT22;7101;51.600;7.310;2022-10-03T12:04:50;17.30;1.00
14053;DHT22;7101;51.600;7.310;2022-10-03T12:07:41;17.60;71.10
14053;DHT22;7101;51.600;7.310;2022-10-03T12:10:36;17.40;99.90
14053;DHT22;7101;51.600;7.310;2022-10-03T12:13:09;17.20;99.90
14053;DHT22;7101;51.600;7.310;2022-10-03T12:15:42;17.20;99.90
14053;DHT22;7101;51.600;7.310;2022-10-03T12:18:15;17.40;20.60
14053;DHT22;7101;51.600;7.310;2022-10-03T12:21:04;17.60;1.00
14053;DHT22;7101;51.600;7.310;2022-10-03T12:24:00;17.70;1.00
14053;DHT22;7101;51.600;7.310;2022-10-03T12:26:42;17.50;35.30
14053;DHT22;7101;51.600;7.310;2022-10-03T12:29:15;17.20;74.10
14053;DHT22;7101;51.600;7.310;2022-10-03T12:31:50;17.10;1.00
14053;DHT22;7101;51.600;7.310;2022-10-03T12:34:33;17.20;1.00
14053;DHT22;7101;51.600;7.310;2022-10-03T12:37:23;17.20;99.90
14053;DHT22;7101;51.600;7.310;2022-10-03T12:40:00;17.60;93.60
14053;DHT22;7101;51.600;7.310;2022-10-03T12:42:33;17.70;1.00
14053;DHT22;7101;51.600;7.310;2022-10-03T12:45:08;17.50;99.90
14053;DHT22;7101;51.600;7.310;2022-10-03T12:47:56;17.70;99.90
14053;DHT22;7101;51.600;7.310;2022-10-03T12:50:43;18.00;1.00
14053;DHT22;7101;51.600;7.310;2022-10-03T12:53:28;17.80;99.90
14053;DHT22;7101;51.600;7.310;2022-10-03T12:56:14;18.00;99.90
14053;DHT22;7101;51.600;7.310;2022-10-03T12:58:58;18.00;99.90
14053;DHT22;7101;51.600;7.310;2022-10-03T13:01:41;18.20;1.00
14053;DHT22;7101;51.600;7.310;2022-10-03T13:04:19;18.00;1.00
14053;DHT22;7101;51.600;7.310;2022-10-03T13:06:58;18.00;99.90
14053;DHT22;7101;51.600;7.310;2022-10-03T13:12:36;17.90;1.00
14053;DHT22;7101;51.600;7.310;2022-10-03T13:15:38;18.10;99.90
14053;DHT22;7101;51.600;7.310;2022-10-03T13:18:36;18.10;1.00
14053;DHT22;7101;51.600;7.310;2022-10-03T13:21:13;17.70;99.90
14053;DHT22;7101;51.600;7.310;2022-10-03T13:23:45;18.00;1.00
14053;DHT22;7101;51.600;7.310;2022-10-03T13:26:18;18.10;1.00
14053;DHT22;7101;51.600;7.310;2022-10-03T13:32:16;18.30;1.00
14053;DHT22;7101;51.600;7.310;2022-10-03T13:35:03;18.70;1.00
14053;DHT22;7101;51.600;7.310;2022-10-03T13:38:03;18.40;1.00
14053;DHT22;7101;51.600;7.310;2022-10-03T13:40:35;18.20;1.00
14053;DHT22;7101;51.600;7.310;2022-10-03T13:43:10;18.20;1.00
14053;DHT22;7101;51.600;7.310;2022-10-03T13:45:41;18.30;99.90
14053;DHT22;7101;51.600;7.310;2022-10-03T13:48:13;18.10;62.40
14053;DHT22;7101;51.600;7.310;2022-10-03T13:50:45;18.00;19.90
14053;DHT22;7101;51.600;7.310;2022-10-03T13:53:33;18.10;99.90
14053;DHT22;7101;51.600;7.310;2022-10-03T13:56:09;18.20;1.00
14053;DHT22;7101;51.600;7.310;2022-10-03T13:58:45;18.30;1.00
14053;DHT22;7101;51.600;7.310;2022-10-03T14:01:36;18.10;1.00
14053;DHT22;7101;51.600;7.310;2022-10-03T14:07:23;18.10;1.00
14053;DHT22;7101;51.600;7.310;2022-10-03T14:10:21;17.80;1.00
14053;DHT22;7101;51.600;7.310;2022-10-03T14:13:07;17.90;1.00
14053;DHT22;7101;51.600;7.310;2022-10-03T14:15:51;17.80;99.90
14053;DHT22;7101;51.600;7.310;2022-10-03T14:18:28;18.00;1.00
14053;DHT22;7101;51.600;7.310;2022-10-03T14:21:28;18.10;1.00
14053;DHT22;7101;51.600;7.310;2022-10-03T14:24:10;18.10;1.00
14053;DHT22;7101;51.600;7.310;2022-10-03T14:26:45;17.70;1.00
14053;DHT22;7101;51.600;7.310;2022-10-03T14:29:19;17.70;30.00
14053;DHT22;7101;51.600;7.310;2022-10-03T14:31:57;17.80;99.90
14053;DHT22;7101;51.600;7.310;2022-10-03T14:34:38;17.60;99.90
14053;DHT22;7101;51.600;7.310;2022-10-03T14:37:15;17.60;1.00
14053;DHT22;7101;51.600;7.310;2022-10-03T14:39:53;17.80;99.90
14053;DHT22;7101;51.600;7.310;2022-10-03T14:42:47;17.80;1.00
14053;DHT22;7101;51.600;7.310;2022-10-03T14:45:22;17.80;1.00
14053;DHT22;7101;51.600;7.310;2022-10-03T14:47:53;17.80;99.90
14053;DHT22;7101;51.600;7.310;2022-10-03T14:50:22;17.70;1.00
14053;DHT22;7101;51.600;7.310;2022-10-03T14:52:55;17.60;1.00
14053;DHT22;7101;51.600;7.310;2022-10-03T14:55:30;17.50;99.90
14053;DHT22;7101;51.600;7.310;2022-10-03T14:58:00;17.70;1.00
14053;DHT22;7101;51.600;7.310;2022-10-03T15:00:39;17.70;99.90
14053;DHT22;7101;51.600;7.310;2022-10-03T15:03:27;17.90;1.00
14053;DHT22;7101;51.600;7.310;2022-10-03T15:06:00;17.90;99.90
14053;DHT22;7101;51.600;7.310;2022-10-03T15:08:32;17.80;33.20
14053;DHT22;7101;51.600;7.310;2022-10-03T15:11:04;17.80;1.00
14053;DHT22;7101;51.600;7.310;2022-10-03T15:13:35;17.70;65.90
14053;DHT22;7101;51.600;7.310;2022-10-03T15:16:04;17.80;1.00
14053;DHT22;7101;51.600;7.310;2022-10-03T15:18:31;18.00;1.00
14053;DHT22;7101;51.600;7.310;2022-10-03T15:20:58;18.10;99.90
14053;DHT22;7101;51.600;7.310;2022-10-03T15:23:29;18.10;1.00
14053;DHT22;7101;51.600;7.310;2022-10-03T15:25:59;18.20;1.00
14053;DHT22;7101;51.600;7.310;2022-10-03T15:28:29;18.20;99.90
14053;DHT22;7101;51.600;7.310;2022-10-03T15:31:07;18.20;1.00
14053;DHT22;7101;51.600;7.310;2022-10-03T15:33:37;18.30;1.00
14053;DHT22;7101;51.600;7.310;2022-10-03T15:36:11;18.30;1.00
14053;DHT22;7101;51.600;7.310;2022-10-03T15:38:42;18.30;1.00
14053;DHT22;7101;51.600;7.310;2022-10-03T15:41:13;18.10;1.00
14053;DHT22;7101;51.600;7.310;2022-10-03T15:43:49;17.90;1.00
14053;DHT22;7101;51.600;7.310;2022-10-03T15:46:29;17.70;11.40
14053;DHT22;7101;51.600;7.310;2022-10-03T15:48:58;17.60;1.00
14053;DHT22;7101;51.600;7.310;2022-10-03T15:51:28;17.60;1.00
14053;DHT22;7101;51.600;7.310;2022-10-03T15:53:57;17.50;82.00
14053;DHT22;7101;51.600;7.310;2022-10-03T15:56:30;17.40;1.00
14053;DHT22;7101;51.600;7.310;2022-10-03T15:59:02;17.30;1.00
14053;DHT22;7101;51.600;7.310;2022-10-03T16:01:33;17.20;1.00
14053;DHT22;7101;51.600;7.310;2022-10-03T16:04:04;17.10;99.90
14053;DHT22;7101;51.600;7.310;2022-10-03T16:06:39;17.00;1.00
14053;DHT22;7101;51.600;7.310;2022-10-03T16:09:16;16.90;1.00
14053;DHT22;7101;51.600;7.310;2022-10-03T16:11:55;16.90;1.00
14053;DHT22;7101;51.600;7.310;2022-10-03T16:14:29;16.90;1.00
14053;DHT22;7101;51.600;7.310;2022-10-03T16:17:05;16.80;99.90
14053;DHT22;7101;51.600;7.310;2022-10-03T16:19:37;16.80;1.00
14053;DHT22;7101;51.600;7.310;2022-10-03T16:22:11;16.70;1.00
14053;DHT22;7101;51.600;7.310;2022-10-03T16:24:56;16.60;1.00
14053;DHT22;7101;51.600;7.310;2022-10-03T16:27:25;16.60;1.00
14053;DHT22;7101;51.600;7.310;2022-10-03T16:30:04;16.40;1.00
14053;DHT22;7101;51.600;7.310;2022-10-03T16:32:39;16.40;1.00
14053;DHT22;7101;51.600;7.310;2022-10-03T16:35:26;16.20;1.00
14053;DHT22;7101;51.600;7.310;2022-10-03T16:37:56;16.20;1.00
14053;DHT22;7101;51.600;7.310;2022-10-03T16:40:23;16.10;38.80
14053;DHT22;7101;51.600;7.310;2022-10-03T16:42:54;15.90;99.90
14053;DHT22;7101;51.600;7.310;2022-10-03T16:45:27;15.80;99.90
14053;DHT22;7101;51.600;7.310;2022-10-03T16:47:57;15.70;99.90
14053;DHT22;7101;51.600;7.310;2022-10-03T16:50:46;15.60;99.90
14053;DHT22;7101;51.600;7.310;2022-10-03T16:53:15;15.40;99.90
14053;DHT22;7101;51.600;7.310;2022-10-03T16:55:46;15.30;99.90
14053;DHT22;7101;51.600;7.310;2022-10-03T16:58:19;15.20;99.90
14053;DHT22;7101;51.600;7.310;2022-10-03T17:01:04;15.00;99.90
14053;DHT22;7101;51.600;7.310;2022-10-03T17:03:35;14.90;99.90
14053;DHT22;7101;51.600;7.310;2022-10-03T17:06:06;14.70;1.00
14053;DHT22;7101;51.600;7.310;2022-10-03T17:08:46;14.50;1.00
14053;DHT22;7101;51.600;7.310;2022-10-03T17:11:17;14.40;1.00
14053;DHT22;7101;51.600;7.310;2022-10-03T17:13:47;14.30;1.00
14053;DHT22;7101;51.600;7.310;2022-10-03T17:16:24;14.20;1.00
14053;DHT22;7101;51.600;7.310;2022-10-03T17:19:06;14.00;1.00
14053;DHT22;7101;51.600;7.310;2022-10-03T17:21:37;13.90;1.00
14053;DHT22;7101;51.600;7.310;2022-10-03T17:24:10;13.70;1.00
14053;DHT22;7101;51.600;7.310;2022-10-03T17:26:40;13.60;1.00
14053;DHT22;7101;51.600;7.310;2022-10-03T17:29:15;13.50;1.00
14053;DHT22;7101;51.600;7.310;2022-10-03T17:31:47;13.40;1.00
14053;DHT22;7101;51.600;7.310;2022-10-03T17:34:17;13.40;1.00
14053;DHT22;7101;51.600;7.310;2022-10-03T17:36:55;13.30;1.00
14053;DHT22;7101;51.600;7.310;2022-10-03T17:39:36;13.20;1.00
14053;DHT22;7101;51.600;7.310;2022-10-03T17:42:12;13.20;1.00
14053;DHT22;7101;51.600;7.310;2022-10-03T17:44:53;13.10;1.00
14053;DHT22;7101;51.600;7.310;2022-10-03T17:47:31;13.00;1.00
14053;DHT22;7101;51.600;7.310;2022-10-03T17:50:04;13.00;1.00
14053;DHT22;7101;51.600;7.310;2022-10-03T17:52:32;12.90;1.00
14053;DHT22;7101;51.600;7.310;2022-10-03T17:55:06;12.80;1.00
14053;DHT22;7101;51.600;7.310;2022-10-03T17:57:38;12.80;1.00
14053;DHT22;7101;51.600;7.310;2022-10-03T18:00:16;12.80;1.00
14053;DHT22;7101;51.600;7.310;2022-10-03T18:02:53;12.70;1.00
14053;DHT22;7101;51.600;7.310;2022-10-03T18:05:25;12.70;1.00
14053;DHT22;7101;51.600;7.310;2022-10-03T18:07:53;12.70;1.00
14053;DHT22;7101;51.600;7.310;2022-10-03T18:10:25;12.60;1.00
14053;DHT22;7101;51.600;7.310;2022-10-03T18:12:56;12.60;1.00
14053;DHT22;7101;51.600;7.310;2022-10-03T18:15:37;12.50;1.00
14053;DHT22;7101;51.600;7.310;2022-10-03T18:21:15;12.30;49.40
14053;DHT22;7101;51.600;7.310;2022-10-03T18:23:56;12.20;97.40
14053;DHT22;7101;51.600;7.310;2022-10-03T18:26:33;12.20;99.90
14053;DHT22;7101;51.600;7.310;2022-10-03T18:29:13;12.10;99.90
14053;DHT22;7101;51.600;7.310;2022-10-03T18:31:47;12.10;99.90
14053;DHT22;7101;51.600;7.310;2022-10-03T18:34:18;12.20;90.10
14053;DHT22;7101;51.600;7.310;2022-10-03T18:36:49;12.10;95.00
14053;DHT22;7101;51.600;7.310;2022-10-03T18:39:19;12.10;99.90
14053;DHT22;7101;51.600;7.310;2022-10-03T18:41:49;12.00;99.90
14053;DHT22;7101;51.600;7.310;2022-10-03T18:44:18;12.00;99.90
14053;DHT22;7101;51.600;7.310;2022-10-03T18:46:51;11.90;99.90
14053;DHT22;7101;51.600;7.310;2022-10-03T18:49:23;11.90;99.90
14053;DHT22;7101;51.600;7.310;2022-10-03T18:51:56;11.80;99.90
14053;DHT22;7101;51.600;7.310;2022-10-03T18:54:33;11.70;99.90
14053;DHT22;7101;51.600;7.310;2022-10-03T18:57:10;11.70;99.90
14053;DHT22;7101;51.600;7.310;2022-10-03T18:59:44;11.60;99.90
14053;DHT22;7101;51.600;7.310;2022-10-03T19:02:20;11.50;99.90
14053;DHT22;7101;51.600;7.310;2022-10-03T19:04:53;11.40;99.90
14053;DHT22;7101;51.600;7.310;2022-10-03T19:07:24;11.40;99.90
14053;DHT22;7101;51.600;7.310;2022-10-03T19:10:17;11.30;99.90
14053;DHT22;7101;51.600;7.310;2022-10-03T19:12:52;11.30;99.90
14053;DHT22;7101;51.600;7.310;2022-10-03T19:15:26;11.10;99.90
14053;DHT22;7101;51.600;7.310;2022-10-03T19:18:07;11.10;99.90
14053;DHT22;7101;51.600;7.310;2022-10-03T19:20:37;11.10;99.90
14053;DHT22;7101;51.600;7.310;2022-10-03T19:23:11;11.10;99.90
14053;DHT22;7101;51.600;7.310;2022-10-03T19:25:42;11.00;99.90
14053;DHT22;7101;51.600;7.310;2022-10-03T19:28:15;10.90;99.90
14053;DHT22;7101;51.600;7.310;2022-10-03T19:30:45;10.90;99.90
14053;DHT22;7101;51.600;7.310;2022-10-03T19:33:23;11.00;99.90
14053;DHT22;7101;51.600;7.310;2022-10-03T19:35:54;11.00;99.90
14053;DHT22;7101;51.600;7.310;2022-10-03T19:38:27;11.00;99.90
14053;DHT22;7101;51.600;7.310;2022-10-03T19:40:59;11.10;99.90
14053;DHT22;7101;51.600;7.310;2022-10-03T19:43:41;11.10;99.90
14053;DHT22;7101;51.600;7.310;2022-10-03T19:49:25;11.10;99.90
14053;DHT22;7101;51.600;7.310;2022-10-03T19:52:10;11.10;99.90
14053;DHT22;7101;51.600;7.310;2022-10-03T19:54:47;11.10;99.90
14053;DHT22;7101;51.600;7.310;2022-10-03T19:57:18;11.00;99.90
14053;DHT22;7101;51.600;7.310;2022-10-03T19:59:49;11.00;99.90
14053;DHT22;7101;51.600;7.310;2022-10-03T20:02:21;11.00;99.90
14053;DHT22;7101;51.600;7.310;2022-10-03T20:04:50;11.00;99.90
14053;DHT22;7101;51.600;7.310;2022-10-03T20:10:32;11.00;99.90